Philadelphia, Pennsylvania
Traffic Map
Current Weather Conditions
Philadelphia, Pennsylvania
Clear
Clear

Feels Like: 0°
Wind Chill: Ceiling: Unl
Heat Index: Visibility: 10mi
Dew Point: -9° Wind: 9mph
Humidity: 39% Direction: 320° (NW)
Pressure: 30.33in Gusts: 0mph
Raw Report DataKPHL 052354Z 32008KT 10SM CLR 04/M09 A3033 RMK AO2 SLP269 T00391089 10067 20039 51038 $
Traffic Incident Summary
Active as of:
Severity:
Category:
InformationThere was an issue retrieving the traffic information for this location. Please try a different location or try again shortly.
Advertisements
Track Severe Weather on mobile